createdAt,value
2022-12-26T00:01:17.503Z,3.92
2022-12-26T00:03:54.305Z,3.94
2022-12-26T00:06:33.129Z,3.96
2022-12-26T00:09:11.507Z,3.98
2022-12-26T00:11:48.088Z,4.01
2022-12-26T00:14:24.557Z,4.03
2022-12-26T00:17:00.821Z,4.06
2022-12-26T00:19:37.304Z,4.07
2022-12-26T00:22:15.928Z,4.10
2022-12-26T00:24:53.296Z,4.12
2022-12-26T00:27:29.643Z,4.17
2022-12-26T00:30:07.621Z,4.20
2022-12-26T00:32:44.033Z,4.20
2022-12-26T00:35:20.775Z,4.21
2022-12-26T00:37:57.280Z,4.20
2022-12-26T00:40:33.743Z,4.21
2022-12-26T00:43:10.070Z,4.20
2022-12-26T00:45:52.183Z,4.20
2022-12-26T00:48:28.792Z,4.14
2022-12-26T00:51:06.275Z,4.12
2022-12-26T00:53:43.043Z,4.08
2022-12-26T00:56:19.927Z,4.07
2022-12-26T00:58:56.199Z,4.07
2022-12-26T01:01:34.174Z,4.08
2022-12-26T01:04:10.927Z,4.10
2022-12-26T01:06:47.263Z,4.12
2022-12-26T01:09:23.901Z,4.11
2022-12-26T01:12:00.164Z,4.12
2022-12-26T01:14:36.482Z,4.11
2022-12-26T01:17:12.896Z,4.09
2022-12-26T01:19:49.588Z,4.07
2022-12-26T01:22:27.280Z,4.06
2022-12-26T01:25:03.688Z,4.05
2022-12-26T01:27:40.446Z,4.04
2022-12-26T01:30:18.007Z,4.03
2022-12-26T01:32:54.374Z,4.03
2022-12-26T01:35:30.590Z,4.03
2022-12-26T01:38:06.928Z,4.04
2022-12-26T01:40:47.403Z,4.05
2022-12-26T01:43:23.721Z,4.07
2022-12-26T01:45:59.979Z,4.08
2022-12-26T01:48:37.466Z,4.09
2022-12-26T01:51:15.504Z,4.10
2022-12-26T01:54:38.526Z,4.12
2022-12-26T01:56:54.403Z,4.10
2022-12-26T01:59:37.497Z,4.10
2022-12-26T02:02:14.976Z,4.13
2022-12-26T02:05:13.000Z,4.13
2022-12-26T02:07:50.493Z,4.15
2022-12-26T02:10:31.700Z,4.16
2022-12-26T02:13:10.449Z,4.18
2022-12-26T02:15:47.887Z,4.18
2022-12-26T02:18:24.331Z,4.18
2022-12-26T02:21:28.687Z,4.18
2022-12-26T02:24:52.852Z,4.19
2022-12-26T02:28:17.456Z,4.22
2022-12-26T02:31:03.335Z,4.24
2022-12-26T02:34:07.327Z,4.25
2022-12-26T02:37:15.854Z,4.26
2022-12-26T02:40:12.153Z,4.27
2022-12-26T02:43:07.868Z,4.29
2022-12-26T02:46:09.513Z,4.32
2022-12-26T02:49:00.306Z,4.37
2022-12-26T02:52:19.029Z,4.36
2022-12-26T02:55:26.503Z,4.35
2022-12-26T02:58:35.303Z,4.30
2022-12-26T03:01:41.760Z,4.31
2022-12-26T03:04:40.671Z,4.32
2022-12-26T03:07:44.839Z,4.32
2022-12-26T03:10:46.796Z,4.29
2022-12-26T03:13:33.260Z,4.28
2022-12-26T03:16:32.608Z,4.27
2022-12-26T03:19:13.160Z,4.26
2022-12-26T03:21:52.925Z,4.28
2022-12-26T03:24:51.160Z,4.27
2022-12-26T03:27:27.376Z,4.28
2022-12-26T03:30:21.440Z,4.25
2022-12-26T03:33:00.626Z,4.18
2022-12-26T03:35:38.867Z,4.14
2022-12-26T03:38:21.214Z,4.11
2022-12-26T03:41:30.042Z,4.05
2022-12-26T03:44:45.004Z,3.96
2022-12-26T03:47:52.496Z,3.94
2022-12-26T03:50:54.509Z,3.86
2022-12-26T03:54:02.092Z,3.77
2022-12-26T03:57:06.799Z,3.72
2022-12-26T04:00:28.734Z,3.66
2022-12-26T04:03:32.873Z,3.59
2022-12-26T04:06:50.922Z,3.55
2022-12-26T04:10:02.488Z,3.46
2022-12-26T04:13:04.616Z,3.38
2022-12-26T04:16:13.037Z,3.33
2022-12-26T04:19:18.158Z,3.29
2022-12-26T04:22:23.221Z,3.24
2022-12-26T04:25:50.200Z,3.17
2022-12-26T04:28:41.881Z,3.13
2022-12-26T04:31:45.819Z,3.06
2022-12-26T04:34:53.798Z,2.99
2022-12-26T04:37:52.684Z,2.93
2022-12-26T04:40:53.909Z,2.89
2022-12-26T04:43:52.087Z,2.87
2022-12-26T04:46:31.959Z,2.85
2022-12-26T04:49:30.489Z,2.81
2022-12-26T04:52:13.784Z,2.78
2022-12-26T04:54:51.662Z,2.78
2022-12-26T04:57:28.166Z,2.78
2022-12-26T05:00:04.957Z,2.76
2022-12-26T05:02:59.150Z,2.75
2022-12-26T05:05:58.319Z,2.74
2022-12-26T05:08:58.149Z,2.73
2022-12-26T05:11:37.036Z,2.72
2022-12-26T05:14:13.313Z,2.72
2022-12-26T05:17:07.268Z,2.69
2022-12-26T05:20:01.550Z,2.68
2022-12-26T05:23:02.274Z,2.70
2022-12-26T05:26:00.643Z,2.71
2022-12-26T05:28:43.060Z,2.70
2022-12-26T05:31:21.599Z,2.70
2022-12-26T05:34:06.969Z,2.71
2022-12-26T05:36:50.742Z,2.71
2022-12-26T05:39:27.437Z,2.71
2022-12-26T05:42:03.831Z,2.68
2022-12-26T05:44:40.073Z,2.68
2022-12-26T05:47:16.300Z,2.66
2022-12-26T05:49:54.177Z,2.64
2022-12-26T05:52:30.609Z,2.65
2022-12-26T05:55:07.811Z,2.63
2022-12-26T05:57:44.046Z,2.64
2022-12-26T06:00:23.074Z,2.63
2022-12-26T06:03:00.780Z,2.63
2022-12-26T06:05:37.249Z,2.62
2022-12-26T06:08:14.283Z,2.62
2022-12-26T06:10:50.589Z,2.62
2022-12-26T06:13:27.433Z,2.62
2022-12-26T06:16:07.755Z,2.63
2022-12-26T06:18:44.946Z,2.60
2022-12-26T06:21:22.726Z,2.59
2022-12-26T06:23:59.067Z,2.57
2022-12-26T06:26:35.375Z,2.56
2022-12-26T06:29:12.272Z,2.55
2022-12-26T06:31:48.845Z,2.51
2022-12-26T06:34:25.597Z,2.49
2022-12-26T06:37:01.884Z,2.44
2022-12-26T06:39:38.538Z,2.37
2022-12-26T06:42:14.857Z,2.33
2022-12-26T06:44:51.163Z,2.30
2022-12-26T06:47:27.507Z,2.27
2022-12-26T06:50:03.850Z,2.27
2022-12-26T06:52:40.323Z,2.26
2022-12-26T06:55:16.603Z,2.21
2022-12-26T06:57:54.580Z,2.17
2022-12-26T07:00:31.246Z,2.12
2022-12-26T07:03:07.667Z,2.08
2022-12-26T07:05:44.193Z,2.01
2022-12-26T07:08:20.410Z,1.93
2022-12-26T07:10:56.728Z,1.93
2022-12-26T07:13:33.139Z,1.94
2022-12-26T07:16:10.360Z,1.98
2022-12-26T07:18:47.621Z,2.04
2022-12-26T07:21:25.012Z,2.10
2022-12-26T07:24:01.475Z,2.18
2022-12-26T07:26:37.753Z,2.27
2022-12-26T07:29:17.079Z,2.34
2022-12-26T07:31:53.766Z,2.46
2022-12-26T07:34:31.870Z,2.57
2022-12-26T07:37:09.597Z,2.72
2022-12-26T07:39:45.960Z,2.88
2022-12-26T07:42:24.233Z,3.04
2022-12-26T07:45:01.977Z,3.22
2022-12-26T07:47:38.389Z,3.38
2022-12-26T07:50:16.075Z,3.56
2022-12-26T07:52:52.574Z,3.74
2022-12-26T07:55:28.865Z,3.91
2022-12-26T07:58:05.230Z,4.11
2022-12-26T08:00:41.464Z,4.26
2022-12-26T08:03:18.078Z,4.39
2022-12-26T08:05:55.249Z,4.50
2022-12-26T08:08:32.546Z,4.58
2022-12-26T08:11:13.486Z,4.68
2022-12-26T08:13:51.209Z,4.81
2022-12-26T08:16:27.694Z,4.92
2022-12-26T08:19:05.928Z,5.05
2022-12-26T08:21:42.326Z,5.22
2022-12-26T08:24:18.873Z,5.33
2022-12-26T08:26:55.215Z,5.43
2022-12-26T08:29:31.827Z,5.48
2022-12-26T08:32:09.694Z,5.54
2022-12-26T08:34:46.228Z,5.58
2022-12-26T08:37:24.141Z,5.62
2022-12-26T08:40:00.701Z,5.64
2022-12-26T08:42:44.605Z,5.66
2022-12-26T08:45:32.649Z,5.66
2022-12-26T08:48:10.041Z,5.70
2022-12-26T08:50:46.316Z,5.72
2022-12-26T08:53:22.536Z,5.75
2022-12-26T08:55:59.611Z,5.78
2022-12-26T08:58:36.474Z,5.85
2022-12-26T09:01:17.422Z,5.91
2022-12-26T09:03:57.341Z,5.97
2022-12-26T09:06:38.525Z,6.06
2022-12-26T09:09:16.503Z,6.17
2022-12-26T09:11:53.111Z,6.27
2022-12-26T09:14:29.578Z,6.37
2022-12-26T09:17:06.004Z,6.45
2022-12-26T09:19:43.028Z,6.53
2022-12-26T09:22:37.660Z,6.62
2022-12-26T09:25:15.226Z,6.75
2022-12-26T09:27:58.842Z,6.93
2022-12-26T09:30:35.789Z,7.14
2022-12-26T09:33:12.515Z,7.38
2022-12-26T09:35:48.876Z,7.65
2022-12-26T09:38:25.299Z,7.90
2022-12-26T09:41:23.746Z,8.10
2022-12-26T09:44:14.991Z,8.31
2022-12-26T09:47:21.810Z,8.44
2022-12-26T09:50:05.393Z,8.62
2022-12-26T09:52:50.694Z,8.77
2022-12-26T09:55:42.468Z,8.90
2022-12-26T09:58:31.622Z,9.03
2022-12-26T10:01:16.842Z,9.13
2022-12-26T10:03:58.370Z,9.23
2022-12-26T10:06:42.740Z,9.35
2022-12-26T10:10:01.221Z,9.44
2022-12-26T10:12:56.788Z,9.54
2022-12-26T10:15:50.589Z,9.62
2022-12-26T10:18:45.096Z,9.73
2022-12-26T10:21:43.636Z,9.78
2022-12-26T10:24:25.389Z,9.76
2022-12-26T10:27:13.752Z,9.74
2022-12-26T10:29:57.899Z,9.77
2022-12-26T10:32:42.883Z,9.81
2022-12-26T10:35:33.977Z,9.85
2022-12-26T10:38:29.282Z,9.86
2022-12-26T10:41:15.298Z,9.89
2022-12-26T10:43:51.680Z,9.95
2022-12-26T10:47:20.403Z,9.96
2022-12-26T10:50:00.250Z,9.99
2022-12-26T10:52:43.131Z,10.04
2022-12-26T10:55:34.626Z,10.10
2022-12-26T10:58:24.225Z,10.12
2022-12-26T11:01:47.348Z,10.10
2022-12-26T11:07:26.568Z,10.07
2022-12-26T11:10:04.079Z,10.11
2022-12-26T11:12:50.474Z,10.13
2022-12-26T11:15:39.777Z,10.12
2022-12-26T11:18:36.005Z,10.11
2022-12-26T11:21:27.509Z,10.09
2022-12-26T11:24:22.351Z,10.15
2022-12-26T11:27:25.211Z,10.24
2022-12-26T11:30:27.991Z,10.35
2022-12-26T11:33:28.113Z,10.41
2022-12-26T11:36:24.839Z,10.46
2022-12-26T11:39:06.755Z,10.53
2022-12-26T11:41:49.356Z,10.63
2022-12-26T11:44:35.499Z,10.72
2022-12-26T11:47:19.216Z,10.79
2022-12-26T11:50:05.764Z,10.92
2022-12-26T11:52:51.928Z,11.03
2022-12-26T11:55:39.350Z,11.11
2022-12-26T11:58:25.452Z,11.15
2022-12-26T12:01:20.567Z,11.16
2022-12-26T12:03:58.956Z,11.16
2022-12-26T12:07:02.418Z,11.14
2022-12-26T12:09:54.317Z,11.10
2022-12-26T12:12:43.856Z,11.10
2022-12-26T12:15:30.755Z,11.07
2022-12-26T12:18:21.520Z,11.06
2022-12-26T12:21:19.623Z,11.07
2022-12-26T12:24:31.166Z,11.06
2022-12-26T12:27:21.526Z,11.05
2022-12-26T12:30:24.407Z,11.05
2022-12-26T12:33:29.761Z,11.04
2022-12-26T12:36:18.690Z,10.97
2022-12-26T12:39:17.490Z,10.84
2022-12-26T12:42:24.615Z,10.76
2022-12-26T12:45:32.629Z,10.74
2022-12-26T12:48:53.717Z,10.70
2022-12-26T12:51:44.506Z,10.72
2022-12-26T12:55:28.608Z,10.71
2022-12-26T12:58:18.386Z,10.71
2022-12-26T13:01:03.170Z,10.71
2022-12-26T13:03:51.144Z,10.71
2022-12-26T13:06:41.960Z,10.68
2022-12-26T13:09:24.895Z,10.65
2022-12-26T13:12:06.270Z,10.59
2022-12-26T13:14:49.381Z,10.58
2022-12-26T13:17:33.252Z,10.54
2022-12-26T13:20:21.884Z,10.50
2022-12-26T13:23:23.317Z,10.46
2022-12-26T13:26:12.761Z,10.42
2022-12-26T13:29:13.152Z,10.36
2022-12-26T13:31:49.842Z,10.27
2022-12-26T13:34:26.626Z,10.21
2022-12-26T13:37:04.117Z,10.16
2022-12-26T13:39:45.255Z,10.12
2022-12-26T13:42:55.571Z,10.07
2022-12-26T13:45:58.364Z,9.98
2022-12-26T13:49:02.387Z,9.90
2022-12-26T13:52:00.850Z,9.85
2022-12-26T13:55:00.520Z,9.76
2022-12-26T13:57:47.246Z,9.65
2022-12-26T14:00:46.429Z,9.52
2022-12-26T14:04:09.410Z,9.45
2022-12-26T14:07:13.766Z,9.36
2022-12-26T14:10:13.267Z,9.30
2022-12-26T14:13:09.186Z,9.21
2022-12-26T14:15:59.208Z,9.11
2022-12-26T14:18:52.360Z,9.03
2022-12-26T14:21:52.374Z,8.94
2022-12-26T14:24:45.480Z,8.83
2022-12-26T14:27:45.525Z,8.74
2022-12-26T14:30:38.160Z,8.66
2022-12-26T14:33:33.953Z,8.55
2022-12-26T14:36:34.119Z,8.48
2022-12-26T14:39:36.124Z,8.43
2022-12-26T14:43:12.660Z,8.37
2022-12-26T14:45:53.567Z,8.23
2022-12-26T14:49:18.806Z,8.12
2022-12-26T14:51:56.362Z,7.95
2022-12-26T14:54:51.261Z,7.89
2022-12-26T14:57:51.190Z,7.84
2022-12-26T15:00:41.541Z,7.80
2022-12-26T15:03:58.368Z,7.73
2022-12-26T15:07:39.973Z,7.70
2022-12-26T15:11:12.476Z,7.69
2022-12-26T15:14:38.607Z,7.72
2022-12-26T15:17:31.816Z,7.71
2022-12-26T15:21:05.714Z,7.72
2022-12-26T15:25:08.301Z,7.74
2022-12-26T15:28:22.820Z,7.70
2022-12-26T15:31:35.308Z,7.64
2022-12-26T15:34:59.034Z,7.61
2022-12-26T15:38:05.851Z,7.61
2022-12-26T15:40:56.830Z,7.59
2022-12-26T15:44:01.524Z,7.57
2022-12-26T15:46:45.294Z,7.55
2022-12-26T15:49:50.412Z,7.51
2022-12-26T15:52:48.723Z,7.43
2022-12-26T15:56:00.354Z,7.37
2022-12-26T15:59:09.857Z,7.35
2022-12-26T16:01:53.519Z,7.32
2022-12-26T16:04:37.429Z,7.28
2022-12-26T16:07:36.749Z,7.23
2022-12-26T16:10:35.162Z,7.20
2022-12-26T16:13:23.952Z,7.16
2022-12-26T16:16:03.703Z,7.15
2022-12-26T16:18:40.179Z,7.13
2022-12-26T16:21:38.791Z,7.10
2022-12-26T16:24:19.250Z,7.07
2022-12-26T16:26:56.527Z,7.09
2022-12-26T16:29:38.118Z,7.15
2022-12-26T16:32:21.636Z,7.16
2022-12-26T16:34:58.717Z,7.15
2022-12-26T16:37:35.709Z,7.18
2022-12-26T16:40:29.449Z,7.19
2022-12-26T16:43:26.902Z,7.17
2022-12-26T16:46:08.117Z,7.17
2022-12-26T16:48:45.971Z,7.18
2022-12-26T16:51:48.459Z,7.16
2022-12-26T16:54:42.505Z,7.17
2022-12-26T16:57:25.012Z,7.16
2022-12-26T17:00:03.003Z,7.15
2022-12-26T17:02:47.064Z,7.14
2022-12-26T17:05:28.905Z,7.14
2022-12-26T17:08:14.094Z,7.28
2022-12-26T17:10:57.305Z,7.40
2022-12-26T17:13:37.000Z,7.49
2022-12-26T17:16:15.328Z,7.46
2022-12-26T17:19:09.874Z,7.44
2022-12-26T17:22:29.897Z,7.42
2022-12-26T17:25:29.663Z,7.40
2022-12-26T17:28:33.245Z,7.32
2022-12-26T17:31:24.834Z,7.26
2022-12-26T17:34:07.697Z,7.28
2022-12-26T17:37:17.812Z,7.33
2022-12-26T17:39:41.276Z,7.42
2022-12-26T17:42:19.080Z,7.49
2022-12-26T17:44:57.084Z,7.54
2022-12-26T17:47:33.864Z,7.56
2022-12-26T17:50:11.147Z,7.61
2022-12-26T17:52:47.641Z,7.64
2022-12-26T17:55:30.324Z,7.70
2022-12-26T17:58:06.609Z,7.78
2022-12-26T18:00:46.450Z,7.84
2022-12-26T18:03:23.506Z,7.93
2022-12-26T18:06:00.189Z,7.99
2022-12-26T18:08:41.143Z,8.03
2022-12-26T18:11:18.898Z,8.06
2022-12-26T18:13:55.489Z,8.08
2022-12-26T18:16:31.836Z,8.11
2022-12-26T18:19:10.198Z,8.13
2022-12-26T18:21:49.462Z,8.13
2022-12-26T18:24:26.108Z,8.15
2022-12-26T18:27:02.629Z,8.16
2022-12-26T18:29:40.820Z,8.16
2022-12-26T18:32:28.857Z,8.18
2022-12-26T18:35:06.451Z,8.20
2022-12-26T18:37:46.340Z,8.18
2022-12-26T18:40:36.474Z,8.19
2022-12-26T18:43:14.233Z,8.19
2022-12-26T18:45:51.827Z,8.21
2022-12-26T18:48:28.182Z,8.22
2022-12-26T18:51:06.364Z,8.23
2022-12-26T18:53:44.202Z,8.23
2022-12-26T18:56:25.133Z,8.24
2022-12-26T18:59:01.363Z,8.23
2022-12-26T19:01:37.897Z,8.24
2022-12-26T19:04:17.499Z,8.25
2022-12-26T19:06:54.321Z,8.27
2022-12-26T19:09:30.996Z,8.29
2022-12-26T19:12:08.040Z,8.30
2022-12-26T19:14:46.332Z,8.32
2022-12-26T19:17:22.935Z,8.33
2022-12-26T19:19:59.536Z,8.32
2022-12-26T19:22:36.312Z,8.32
2022-12-26T19:25:14.647Z,8.30
2022-12-26T19:27:52.964Z,8.28
2022-12-26T19:30:38.264Z,8.27
2022-12-26T19:33:18.549Z,8.28
2022-12-26T19:36:02.193Z,8.28
2022-12-26T19:38:39.640Z,8.27
2022-12-26T19:41:17.997Z,8.30
2022-12-26T19:44:00.613Z,8.30
2022-12-26T19:46:37.159Z,8.31
2022-12-26T19:49:14.042Z,8.31
2022-12-26T19:51:50.816Z,8.31
2022-12-26T19:54:27.574Z,8.31
2022-12-26T19:57:05.190Z,8.29
2022-12-26T19:59:42.138Z,8.27
2022-12-26T20:02:19.637Z,8.27
2022-12-26T20:04:56.844Z,8.28
2022-12-26T20:07:33.139Z,8.29
2022-12-26T20:10:11.084Z,8.30
2022-12-26T20:12:48.015Z,8.31
2022-12-26T20:15:24.517Z,8.30
2022-12-26T20:18:01.352Z,8.31
2022-12-26T20:20:38.109Z,8.32
2022-12-26T20:23:14.894Z,8.32
2022-12-26T20:25:51.981Z,8.31
2022-12-26T20:28:28.538Z,8.30
2022-12-26T20:31:14.053Z,8.32
2022-12-26T20:33:53.401Z,8.33
2022-12-26T20:36:33.547Z,8.36
2022-12-26T20:39:18.368Z,8.37
2022-12-26T20:41:55.030Z,8.40
2022-12-26T20:44:33.840Z,8.42
2022-12-26T20:47:10.897Z,8.43
2022-12-26T20:49:49.123Z,8.43
2022-12-26T20:52:27.367Z,8.44
2022-12-26T20:55:03.903Z,8.45
2022-12-26T20:57:40.505Z,8.44
2022-12-26T21:00:20.313Z,8.45
2022-12-26T21:03:00.258Z,8.46
2022-12-26T21:05:37.026Z,8.48
2022-12-26T21:08:13.903Z,8.48
2022-12-26T21:10:54.652Z,8.43
2022-12-26T21:13:34.039Z,8.43
2022-12-26T21:16:22.633Z,8.45
2022-12-26T21:19:00.473Z,8.48
2022-12-26T21:21:40.642Z,8.48
2022-12-26T21:24:22.573Z,8.50
2022-12-26T21:26:59.902Z,8.53
2022-12-26T21:29:40.261Z,8.55
2022-12-26T21:32:18.068Z,8.58
2022-12-26T21:34:54.946Z,8.63
2022-12-26T21:37:51.546Z,8.65
2022-12-26T21:40:28.429Z,8.67
2022-12-26T21:43:05.258Z,8.70
2022-12-26T21:45:44.140Z,8.71
2022-12-26T21:48:20.941Z,8.72
2022-12-26T21:50:57.816Z,8.73
2022-12-26T21:53:35.112Z,8.72
2022-12-26T21:56:13.798Z,8.72
2022-12-26T21:59:08.235Z,8.71
2022-12-26T22:01:45.386Z,8.73
2022-12-26T22:04:23.811Z,8.72
2022-12-26T22:07:00.403Z,8.74
2022-12-26T22:09:37.030Z,8.73
2022-12-26T22:12:32.859Z,8.72
2022-12-26T22:15:31.969Z,8.71
2022-12-26T22:18:08.911Z,8.71
2022-12-26T22:20:46.248Z,8.69
2022-12-26T22:23:22.856Z,8.69
2022-12-26T22:26:04.996Z,8.69
2022-12-26T22:28:42.461Z,8.68
2022-12-26T22:31:26.924Z,8.67
2022-12-26T22:34:05.812Z,8.67
2022-12-26T22:36:43.128Z,8.66
2022-12-26T22:39:20.295Z,8.66
2022-12-26T22:42:02.097Z,8.64
2022-12-26T22:44:39.128Z,8.64
2022-12-26T22:47:15.646Z,8.63
2022-12-26T22:49:52.800Z,8.63
2022-12-26T22:52:29.505Z,8.63
2022-12-26T22:55:06.951Z,8.61
2022-12-26T22:57:48.130Z,8.61
2022-12-26T23:00:27.924Z,8.58
2022-12-26T23:03:04.465Z,8.55
2022-12-26T23:05:43.073Z,8.54
2022-12-26T23:08:26.187Z,8.53
2022-12-26T23:11:04.556Z,8.50
2022-12-26T23:13:43.325Z,8.47
2022-12-26T23:16:33.591Z,8.45
2022-12-26T23:19:38.970Z,8.44
2022-12-26T23:22:17.031Z,8.42
2022-12-26T23:24:53.341Z,8.39
2022-12-26T23:27:47.190Z,8.37
2022-12-26T23:30:25.934Z,8.34
2022-12-26T23:33:02.892Z,8.31
2022-12-26T23:35:40.285Z,8.29
2022-12-26T23:38:16.708Z,8.26
2022-12-26T23:40:53.992Z,8.23
2022-12-26T23:43:32.493Z,8.19
2022-12-26T23:46:14.393Z,8.15
2022-12-26T23:48:49.041Z,8.12
2022-12-26T23:51:25.209Z,8.10
2022-12-26T23:54:01.693Z,8.08
2022-12-26T23:56:38.865Z,8.06
2022-12-26T23:59:15.254Z,8.06
